sensor_id;sensor_type;location;lat;lon;timestamp;P1;durP1;ratioP1;P2;durP2;ratioP2
10269;SDS011;70826;50.930;5.334;2023-11-21T00:01:26;13.13;;;11.32;;
10269;SDS011;70826;50.930;5.334;2023-11-21T00:03:54;13.05;;;11.40;;
10269;SDS011;70826;50.930;5.334;2023-11-21T00:06:22;12.90;;;10.93;;
10269;SDS011;70826;50.930;5.334;2023-11-21T00:08:47;14.20;;;11.68;;
10269;SDS011;70826;50.930;5.334;2023-11-21T00:11:15;14.07;;;12.18;;
10269;SDS011;70826;50.930;5.334;2023-11-21T00:13:44;13.63;;;11.07;;
10269;SDS011;70826;50.930;5.334;2023-11-21T00:16:14;12.73;;;11.48;;
10269;SDS011;70826;50.930;5.334;2023-11-21T00:18:40;14.13;;;11.38;;
10269;SDS011;70826;50.930;5.334;2023-11-21T00:21:08;13.05;;;11.60;;
10269;SDS011;70826;50.930;5.334;2023-11-21T00:23:34;14.32;;;11.43;;
10269;SDS011;70826;50.930;5.334;2023-11-21T00:26:02;13.80;;;10.95;;
10269;SDS011;70826;50.930;5.334;2023-11-21T00:28:33;12.98;;;10.70;;
10269;SDS011;70826;50.930;5.334;2023-11-21T00:30:58;13.35;;;11.90;;
10269;SDS011;70826;50.930;5.334;2023-11-21T00:33:24;13.32;;;11.10;;
10269;SDS011;70826;50.930;5.334;2023-11-21T00:35:52;13.13;;;11.13;;
10269;SDS011;70826;50.930;5.334;2023-11-21T00:38:20;15.07;;;11.95;;
10269;SDS011;70826;50.930;5.334;2023-11-21T00:40:49;14.48;;;11.60;;
10269;SDS011;70826;50.930;5.334;2023-11-21T00:43:18;14.25;;;11.23;;
10269;SDS011;70826;50.930;5.334;2023-11-21T00:45:46;12.43;;;11.00;;
10269;SDS011;70826;50.930;5.334;2023-11-21T00:48:14;13.93;;;11.35;;
10269;SDS011;70826;50.930;5.334;2023-11-21T00:50:39;13.20;;;11.07;;
10269;SDS011;70826;50.930;5.334;2023-11-21T00:53:10;14.70;;;11.43;;
10269;SDS011;70826;50.930;5.334;2023-11-21T00:55:36;13.88;;;11.27;;
10269;SDS011;70826;50.930;5.334;2023-11-21T00:58:07;14.07;;;11.43;;
10269;SDS011;70826;50.930;5.334;2023-11-21T01:00:35;13.45;;;11.32;;
10269;SDS011;70826;50.930;5.334;2023-11-21T01:03:04;11.20;;;10.07;;
10269;SDS011;70826;50.930;5.334;2023-11-21T01:05:33;14.45;;;11.10;;
10269;SDS011;70826;50.930;5.334;2023-11-21T01:07:59;12.32;;;11.02;;
10269;SDS011;70826;50.930;5.334;2023-11-21T01:10:25;12.18;;;10.98;;
10269;SDS011;70826;50.930;5.334;2023-11-21T01:12:51;13.18;;;10.85;;
10269;SDS011;70826;50.930;5.334;2023-11-21T01:15:16;14.30;;;11.50;;
10269;SDS011;70826;50.930;5.334;2023-11-21T01:17:44;12.48;;;11.18;;
10269;SDS011;70826;50.930;5.334;2023-11-21T01:20:17;12.90;;;11.32;;
10269;SDS011;70826;50.930;5.334;2023-11-21T01:22:43;11.73;;;10.43;;
10269;SDS011;70826;50.930;5.334;2023-11-21T01:25:14;13.18;;;11.05;;
10269;SDS011;70826;50.930;5.334;2023-11-21T01:27:46;12.70;;;10.38;;
10269;SDS011;70826;50.930;5.334;2023-11-21T01:30:14;11.40;;;10.23;;
10269;SDS011;70826;50.930;5.334;2023-11-21T01:32:41;11.90;;;10.60;;
10269;SDS011;70826;50.930;5.334;2023-11-21T01:35:09;12.80;;;10.85;;
10269;SDS011;70826;50.930;5.334;2023-11-21T01:37:38;13.13;;;10.98;;
10269;SDS011;70826;50.930;5.334;2023-11-21T01:40:04;12.48;;;10.93;;
10269;SDS011;70826;50.930;5.334;2023-11-21T01:42:40;13.07;;;10.93;;
10269;SDS011;70826;50.930;5.334;2023-11-21T01:45:09;12.15;;;10.65;;
10269;SDS011;70826;50.930;5.334;2023-11-21T01:47:37;11.95;;;10.68;;
10269;SDS011;70826;50.930;5.334;2023-11-21T01:50:03;12.20;;;10.60;;
10269;SDS011;70826;50.930;5.334;2023-11-21T01:52:31;13.05;;;11.38;;
10269;SDS011;70826;50.930;5.334;2023-11-21T01:54:58;12.93;;;10.90;;
10269;SDS011;70826;50.930;5.334;2023-11-21T01:57:27;13.75;;;11.93;;
10269;SDS011;70826;50.930;5.334;2023-11-21T01:59:55;12.90;;;10.88;;
10269;SDS011;70826;50.930;5.334;2023-11-21T02:02:25;12.60;;;10.88;;
10269;SDS011;70826;50.930;5.334;2023-11-21T02:04:51;12.73;;;11.05;;
10269;SDS011;70826;50.930;5.334;2023-11-21T02:07:19;13.63;;;11.20;;
10269;SDS011;70826;50.930;5.334;2023-11-21T02:09:44;13.73;;;11.90;;
10269;SDS011;70826;50.930;5.334;2023-11-21T02:12:10;13.05;;;10.70;;
10269;SDS011;70826;50.930;5.334;2023-11-21T02:14:38;15.05;;;11.20;;
10269;SDS011;70826;50.930;5.334;2023-11-21T02:17:04;16.35;;;12.20;;
10269;SDS011;70826;50.930;5.334;2023-11-21T02:19:36;13.98;;;12.35;;
10269;SDS011;70826;50.930;5.334;2023-11-21T02:22:02;14.27;;;11.90;;
10269;SDS011;70826;50.930;5.334;2023-11-21T02:24:31;15.00;;;12.60;;
10269;SDS011;70826;50.930;5.334;2023-11-21T02:26:59;14.63;;;11.98;;
10269;SDS011;70826;50.930;5.334;2023-11-21T02:29:27;13.73;;;12.07;;
10269;SDS011;70826;50.930;5.334;2023-11-21T02:31:55;13.88;;;12.30;;
10269;SDS011;70826;50.930;5.334;2023-11-21T02:34:21;15.20;;;12.45;;
10269;SDS011;70826;50.930;5.334;2023-11-21T02:36:50;14.75;;;12.32;;
10269;SDS011;70826;50.930;5.334;2023-11-21T02:39:18;15.85;;;12.40;;
10269;SDS011;70826;50.930;5.334;2023-11-21T02:41:47;15.55;;;12.05;;
10269;SDS011;70826;50.930;5.334;2023-11-21T02:44:13;14.82;;;12.43;;
10269;SDS011;70826;50.930;5.334;2023-11-21T02:46:41;16.83;;;13.10;;
10269;SDS011;70826;50.930;5.334;2023-11-21T02:49:12;17.85;;;12.93;;
10269;SDS011;70826;50.930;5.334;2023-11-21T02:51:40;16.50;;;13.13;;
10269;SDS011;70826;50.930;5.334;2023-11-21T02:54:10;17.10;;;13.18;;
10269;SDS011;70826;50.930;5.334;2023-11-21T02:56:36;16.17;;;13.20;;
10269;SDS011;70826;50.930;5.334;2023-11-21T02:59:05;16.92;;;12.88;;
10269;SDS011;70826;50.930;5.334;2023-11-21T03:01:35;16.55;;;13.45;;
10269;SDS011;70826;50.930;5.334;2023-11-21T03:04:01;17.77;;;13.73;;
10269;SDS011;70826;50.930;5.334;2023-11-21T03:06:29;19.23;;;14.05;;
10269;SDS011;70826;50.930;5.334;2023-11-21T03:08:59;17.15;;;14.10;;
10269;SDS011;70826;50.930;5.334;2023-11-21T03:11:27;17.55;;;14.02;;
10269;SDS011;70826;50.930;5.334;2023-11-21T03:13:55;18.15;;;14.13;;
10269;SDS011;70826;50.930;5.334;2023-11-21T03:16:23;18.80;;;14.32;;
10269;SDS011;70826;50.930;5.334;2023-11-21T03:18:51;20.30;;;14.85;;
10269;SDS011;70826;50.930;5.334;2023-11-21T03:21:17;18.75;;;14.23;;
10269;SDS011;70826;50.930;5.334;2023-11-21T03:23:45;19.95;;;15.18;;
10269;SDS011;70826;50.930;5.334;2023-11-21T03:26:14;18.75;;;14.75;;
10269;SDS011;70826;50.930;5.334;2023-11-21T03:28:42;20.05;;;14.95;;
10269;SDS011;70826;50.930;5.334;2023-11-21T03:31:12;21.40;;;15.18;;
10269;SDS011;70826;50.930;5.334;2023-11-21T03:33:37;20.00;;;15.30;;
10269;SDS011;70826;50.930;5.334;2023-11-21T03:36:03;19.95;;;15.35;;
10269;SDS011;70826;50.930;5.334;2023-11-21T03:38:32;20.38;;;15.48;;
10269;SDS011;70826;50.930;5.334;2023-11-21T03:41:01;20.45;;;15.45;;
10269;SDS011;70826;50.930;5.334;2023-11-21T03:43:27;21.75;;;15.77;;
10269;SDS011;70826;50.930;5.334;2023-11-21T03:45:59;19.35;;;15.23;;
10269;SDS011;70826;50.930;5.334;2023-11-21T03:48:27;21.02;;;15.95;;
10269;SDS011;70826;50.930;5.334;2023-11-21T03:50:55;22.55;;;15.73;;
10269;SDS011;70826;50.930;5.334;2023-11-21T03:53:23;20.38;;;14.93;;
10269;SDS011;70826;50.930;5.334;2023-11-21T03:55:51;19.92;;;15.45;;
10269;SDS011;70826;50.930;5.334;2023-11-21T03:58:19;21.75;;;16.30;;
10269;SDS011;70826;50.930;5.334;2023-11-21T04:00:46;22.60;;;16.17;;
10269;SDS011;70826;50.930;5.334;2023-11-21T04:03:16;21.35;;;16.08;;
10269;SDS011;70826;50.930;5.334;2023-11-21T04:05:42;20.40;;;16.45;;
10269;SDS011;70826;50.930;5.334;2023-11-21T04:08:12;21.35;;;15.45;;
10269;SDS011;70826;50.930;5.334;2023-11-21T04:10:38;21.75;;;16.02;;
10269;SDS011;70826;50.930;5.334;2023-11-21T04:13:04;22.27;;;16.30;;
10269;SDS011;70826;50.930;5.334;2023-11-21T04:15:32;23.33;;;16.30;;
10269;SDS011;70826;50.930;5.334;2023-11-21T04:17:58;21.60;;;16.52;;
10269;SDS011;70826;50.930;5.334;2023-11-21T04:20:26;23.75;;;16.42;;
10269;SDS011;70826;50.930;5.334;2023-11-21T04:22:54;21.85;;;16.00;;
10269;SDS011;70826;50.930;5.334;2023-11-21T04:25:20;21.33;;;16.40;;
10269;SDS011;70826;50.930;5.334;2023-11-21T04:27:45;21.52;;;15.93;;
10269;SDS011;70826;50.930;5.334;2023-11-21T04:30:14;21.60;;;16.27;;
10269;SDS011;70826;50.930;5.334;2023-11-21T04:32:42;21.33;;;15.73;;
10269;SDS011;70826;50.930;5.334;2023-11-21T04:35:14;23.13;;;16.48;;
10269;SDS011;70826;50.930;5.334;2023-11-21T04:37:45;21.33;;;16.55;;
10269;SDS011;70826;50.930;5.334;2023-11-21T04:40:13;23.58;;;16.15;;
10269;SDS011;70826;50.930;5.334;2023-11-21T04:42:41;22.90;;;16.50;;
10269;SDS011;70826;50.930;5.334;2023-11-21T04:45:07;23.17;;;16.33;;
10269;SDS011;70826;50.930;5.334;2023-11-21T04:47:34;20.60;;;16.02;;
10269;SDS011;70826;50.930;5.334;2023-11-21T04:50:00;24.50;;;16.30;;
10269;SDS011;70826;50.930;5.334;2023-11-21T04:52:28;23.20;;;16.42;;
10269;SDS011;70826;50.930;5.334;2023-11-21T04:54:59;24.83;;;16.05;;
10269;SDS011;70826;50.930;5.334;2023-11-21T04:57:28;23.60;;;17.38;;
10269;SDS011;70826;50.930;5.334;2023-11-21T04:59:55;27.48;;;17.17;;
10269;SDS011;70826;50.930;5.334;2023-11-21T05:02:23;24.42;;;17.45;;
10269;SDS011;70826;50.930;5.334;2023-11-21T05:04:49;25.42;;;17.40;;
10269;SDS011;70826;50.930;5.334;2023-11-21T05:07:21;26.00;;;17.70;;
10269;SDS011;70826;50.930;5.334;2023-11-21T05:09:47;24.25;;;17.08;;
10269;SDS011;70826;50.930;5.334;2023-11-21T05:12:13;24.08;;;17.45;;
10269;SDS011;70826;50.930;5.334;2023-11-21T05:14:39;22.88;;;16.50;;
10269;SDS011;70826;50.930;5.334;2023-11-21T05:17:10;22.58;;;15.93;;
10269;SDS011;70826;50.930;5.334;2023-11-21T05:19:38;24.52;;;16.95;;
10269;SDS011;70826;50.930;5.334;2023-11-21T05:22:05;24.33;;;16.63;;
10269;SDS011;70826;50.930;5.334;2023-11-21T05:24:31;24.40;;;16.95;;
10269;SDS011;70826;50.930;5.334;2023-11-21T05:26:56;23.95;;;16.75;;
10269;SDS011;70826;50.930;5.334;2023-11-21T05:29:24;24.85;;;17.65;;
10269;SDS011;70826;50.930;5.334;2023-11-21T05:31:52;24.83;;;16.67;;
10269;SDS011;70826;50.930;5.334;2023-11-21T05:34:18;24.38;;;16.98;;
10269;SDS011;70826;50.930;5.334;2023-11-21T05:36:48;23.17;;;16.80;;
10269;SDS011;70826;50.930;5.334;2023-11-21T05:39:17;24.50;;;16.52;;
10269;SDS011;70826;50.930;5.334;2023-11-21T05:41:47;23.83;;;17.08;;
10269;SDS011;70826;50.930;5.334;2023-11-21T05:44:13;23.38;;;16.48;;
10269;SDS011;70826;50.930;5.334;2023-11-21T05:46:41;24.58;;;16.88;;
10269;SDS011;70826;50.930;5.334;2023-11-21T05:49:09;23.05;;;16.42;;
10269;SDS011;70826;50.930;5.334;2023-11-21T05:51:37;23.23;;;17.02;;
10269;SDS011;70826;50.930;5.334;2023-11-21T05:54:03;25.60;;;16.80;;
10269;SDS011;70826;50.930;5.334;2023-11-21T05:56:29;22.25;;;15.77;;
10269;SDS011;70826;50.930;5.334;2023-11-21T05:59:00;24.20;;;16.95;;
10269;SDS011;70826;50.930;5.334;2023-11-21T06:01:28;21.13;;;15.75;;
10269;SDS011;70826;50.930;5.334;2023-11-21T06:03:56;22.75;;;16.48;;
10269;SDS011;70826;50.930;5.334;2023-11-21T06:06:22;23.88;;;16.80;;
10269;SDS011;70826;50.930;5.334;2023-11-21T06:08:51;22.10;;;16.25;;
10269;SDS011;70826;50.930;5.334;2023-11-21T06:11:16;26.25;;;16.73;;
10269;SDS011;70826;50.930;5.334;2023-11-21T06:13:45;21.50;;;16.05;;
10269;SDS011;70826;50.930;5.334;2023-11-21T06:16:16;21.50;;;15.60;;
10269;SDS011;70826;50.930;5.334;2023-11-21T06:18:45;23.35;;;15.73;;
10269;SDS011;70826;50.930;5.334;2023-11-21T06:21:11;23.38;;;16.05;;
10269;SDS011;70826;50.930;5.334;2023-11-21T06:23:41;21.60;;;15.15;;
10269;SDS011;70826;50.930;5.334;2023-11-21T06:26:07;22.05;;;15.50;;
10269;SDS011;70826;50.930;5.334;2023-11-21T06:28:34;22.73;;;15.48;;
10269;SDS011;70826;50.930;5.334;2023-11-21T06:31:02;24.33;;;16.42;;
10269;SDS011;70826;50.930;5.334;2023-11-21T06:33:33;23.13;;;16.02;;
10269;SDS011;70826;50.930;5.334;2023-11-21T06:36:00;23.77;;;16.63;;
10269;SDS011;70826;50.930;5.334;2023-11-21T06:38:31;22.85;;;15.88;;
10269;SDS011;70826;50.930;5.334;2023-11-21T06:40:59;24.70;;;16.40;;
10269;SDS011;70826;50.930;5.334;2023-11-21T06:43:29;24.63;;;16.45;;
10269;SDS011;70826;50.930;5.334;2023-11-21T06:45:57;24.10;;;16.67;;
10269;SDS011;70826;50.930;5.334;2023-11-21T06:48:25;24.85;;;16.00;;
10269;SDS011;70826;50.930;5.334;2023-11-21T06:50:57;22.88;;;15.90;;
10269;SDS011;70826;50.930;5.334;2023-11-21T06:53:22;24.05;;;16.92;;
10269;SDS011;70826;50.930;5.334;2023-11-21T06:55:50;23.38;;;16.45;;
10269;SDS011;70826;50.930;5.334;2023-11-21T06:58:18;25.67;;;17.27;;
10269;SDS011;70826;50.930;5.334;2023-11-21T07:00:48;22.83;;;15.90;;
10269;SDS011;70826;50.930;5.334;2023-11-21T07:03:17;25.17;;;17.60;;
10269;SDS011;70826;50.930;5.334;2023-11-21T07:05:44;23.73;;;15.73;;
10269;SDS011;70826;50.930;5.334;2023-11-21T07:08:12;24.67;;;16.70;;
10269;SDS011;70826;50.930;5.334;2023-11-21T07:10:40;25.25;;;17.45;;
10269;SDS011;70826;50.930;5.334;2023-11-21T07:13:08;23.70;;;16.67;;
10269;SDS011;70826;50.930;5.334;2023-11-21T07:15:39;24.95;;;16.88;;
10269;SDS011;70826;50.930;5.334;2023-11-21T07:18:05;24.55;;;16.65;;
10269;SDS011;70826;50.930;5.334;2023-11-21T07:20:35;24.90;;;17.20;;
10269;SDS011;70826;50.930;5.334;2023-11-21T07:23:05;24.45;;;17.58;;
10269;SDS011;70826;50.930;5.334;2023-11-21T07:25:31;24.75;;;17.00;;
10269;SDS011;70826;50.930;5.334;2023-11-21T07:28:02;23.63;;;16.38;;
10269;SDS011;70826;50.930;5.334;2023-11-21T07:30:28;26.83;;;17.65;;
10269;SDS011;70826;50.930;5.334;2023-11-21T07:32:53;24.27;;;16.42;;
10269;SDS011;70826;50.930;5.334;2023-11-21T07:35:19;24.05;;;16.55;;
10269;SDS011;70826;50.930;5.334;2023-11-21T07:37:51;24.75;;;17.42;;
10269;SDS011;70826;50.930;5.334;2023-11-21T07:40:22;26.13;;;17.17;;
10269;SDS011;70826;50.930;5.334;2023-11-21T07:42:50;26.60;;;17.38;;
10269;SDS011;70826;50.930;5.334;2023-11-21T07:45:22;26.77;;;17.23;;
10269;SDS011;70826;50.930;5.334;2023-11-21T07:47:52;26.10;;;17.15;;
10269;SDS011;70826;50.930;5.334;2023-11-21T07:50:23;24.77;;;17.63;;
10269;SDS011;70826;50.930;5.334;2023-11-21T07:52:51;26.40;;;17.80;;
10269;SDS011;70826;50.930;5.334;2023-11-21T07:55:21;25.42;;;17.45;;
10269;SDS011;70826;50.930;5.334;2023-11-21T07:57:47;29.92;;;17.88;;
10269;SDS011;70826;50.930;5.334;2023-11-21T08:00:13;27.83;;;18.13;;
10269;SDS011;70826;50.930;5.334;2023-11-21T08:02:42;22.75;;;16.92;;
10269;SDS011;70826;50.930;5.334;2023-11-21T08:05:12;24.20;;;16.88;;
10269;SDS011;70826;50.930;5.334;2023-11-21T08:07:45;25.00;;;16.77;;
10269;SDS011;70826;50.930;5.334;2023-11-21T08:10:13;25.30;;;17.33;;
10269;SDS011;70826;50.930;5.334;2023-11-21T08:12:39;24.70;;;17.23;;
10269;SDS011;70826;50.930;5.334;2023-11-21T08:15:07;23.05;;;16.75;;
10269;SDS011;70826;50.930;5.334;2023-11-21T08:17:34;24.00;;;16.58;;
10269;SDS011;70826;50.930;5.334;2023-11-21T08:20:03;25.55;;;17.60;;
10269;SDS011;70826;50.930;5.334;2023-11-21T08:22:35;25.45;;;17.20;;
10269;SDS011;70826;50.930;5.334;2023-11-21T08:25:06;24.02;;;16.55;;
10269;SDS011;70826;50.930;5.334;2023-11-21T08:27:36;24.92;;;16.48;;
10269;SDS011;70826;50.930;5.334;2023-11-21T08:30:04;24.15;;;16.48;;
10269;SDS011;70826;50.930;5.334;2023-11-21T08:32:30;23.05;;;16.17;;
10269;SDS011;70826;50.930;5.334;2023-11-21T08:34:58;23.48;;;16.52;;
10269;SDS011;70826;50.930;5.334;2023-11-21T08:37:26;25.92;;;16.88;;
10269;SDS011;70826;50.930;5.334;2023-11-21T08:39:52;23.90;;;16.30;;
10269;SDS011;70826;50.930;5.334;2023-11-21T08:42:18;21.80;;;15.80;;
10269;SDS011;70826;50.930;5.334;2023-11-21T08:44:44;26.27;;;15.88;;
10269;SDS011;70826;50.930;5.334;2023-11-21T08:47:10;22.35;;;15.98;;
10269;SDS011;70826;50.930;5.334;2023-11-21T08:49:39;23.17;;;16.38;;
10269;SDS011;70826;50.930;5.334;2023-11-21T08:52:07;22.38;;;16.15;;
10269;SDS011;70826;50.930;5.334;2023-11-21T08:54:35;21.17;;;15.73;;
10269;SDS011;70826;50.930;5.334;2023-11-21T08:57:03;22.17;;;15.60;;
10269;SDS011;70826;50.930;5.334;2023-11-21T08:59:30;22.25;;;15.98;;
10269;SDS011;70826;50.930;5.334;2023-11-21T09:02:00;22.40;;;15.77;;
10269;SDS011;70826;50.930;5.334;2023-11-21T09:04:28;22.85;;;16.23;;
10269;SDS011;70826;50.930;5.334;2023-11-21T09:06:56;21.23;;;15.55;;
10269;SDS011;70826;50.930;5.334;2023-11-21T09:09:25;25.67;;;15.77;;
10269;SDS011;70826;50.930;5.334;2023-11-21T09:11:52;20.95;;;15.40;;
10269;SDS011;70826;50.930;5.334;2023-11-21T09:14:20;21.27;;;15.02;;
10269;SDS011;70826;50.930;5.334;2023-11-21T09:16:46;22.55;;;16.27;;
10269;SDS011;70826;50.930;5.334;2023-11-21T09:19:16;21.75;;;15.60;;
10269;SDS011;70826;50.930;5.334;2023-11-21T09:21:47;21.02;;;15.90;;
10269;SDS011;70826;50.930;5.334;2023-11-21T09:24:12;19.55;;;15.23;;
10269;SDS011;70826;50.930;5.334;2023-11-21T09:26:38;20.33;;;15.15;;
10269;SDS011;70826;50.930;5.334;2023-11-21T09:29:03;23.15;;;16.23;;
10269;SDS011;70826;50.930;5.334;2023-11-21T09:31:33;20.17;;;14.80;;
10269;SDS011;70826;50.930;5.334;2023-11-21T09:34:01;19.45;;;16.08;;
10269;SDS011;70826;50.930;5.334;2023-11-21T09:36:29;24.20;;;19.55;;
10269;SDS011;70826;50.930;5.334;2023-11-21T09:39:00;24.77;;;19.33;;
10269;SDS011;70826;50.930;5.334;2023-11-21T09:41:35;21.23;;;18.65;;
10269;SDS011;70826;50.930;5.334;2023-11-21T09:44:09;43.03;;;18.60;;
10269;SDS011;70826;50.930;5.334;2023-11-21T09:46:40;24.65;;;17.33;;
10269;SDS011;70826;50.930;5.334;2023-11-21T09:49:17;20.42;;;16.40;;
10269;SDS011;70826;50.930;5.334;2023-11-21T09:51:53;22.23;;;17.73;;
10269;SDS011;70826;50.930;5.334;2023-11-21T09:54:21;24.45;;;16.73;;
10269;SDS011;70826;50.930;5.334;2023-11-21T09:56:49;17.77;;;15.82;;
10269;SDS011;70826;50.930;5.334;2023-11-21T09:59:19;17.25;;;15.50;;
10269;SDS011;70826;50.930;5.334;2023-11-21T10:01:52;18.77;;;15.88;;
10269;SDS011;70826;50.930;5.334;2023-11-21T10:04:18;19.58;;;15.23;;
10269;SDS011;70826;50.930;5.334;2023-11-21T10:06:46;23.38;;;14.80;;
10269;SDS011;70826;50.930;5.334;2023-11-21T10:09:17;22.67;;;15.10;;
10269;SDS011;70826;50.930;5.334;2023-11-21T10:11:45;17.20;;;14.82;;
10269;SDS011;70826;50.930;5.334;2023-11-21T10:14:13;16.65;;;14.07;;
10269;SDS011;70826;50.930;5.334;2023-11-21T10:16:40;17.75;;;14.15;;
10269;SDS011;70826;50.930;5.334;2023-11-21T10:19:10;20.67;;;14.93;;
10269;SDS011;70826;50.930;5.334;2023-11-21T10:21:41;16.60;;;14.77;;
10269;SDS011;70826;50.930;5.334;2023-11-21T10:24:07;16.98;;;15.27;;
10269;SDS011;70826;50.930;5.334;2023-11-21T10:26:32;21.92;;;15.77;;
10269;SDS011;70826;50.930;5.334;2023-11-21T10:29:02;18.85;;;15.20;;
10269;SDS011;70826;50.930;5.334;2023-11-21T10:31:31;15.07;;;13.35;;
10269;SDS011;70826;50.930;5.334;2023-11-21T10:34:14;17.60;;;13.63;;
10269;SDS011;70826;50.930;5.334;2023-11-21T10:36:40;15.07;;;13.05;;
10269;SDS011;70826;50.930;5.334;2023-11-21T10:39:06;16.77;;;13.15;;
10269;SDS011;70826;50.930;5.334;2023-11-21T10:41:32;14.90;;;13.02;;
10269;SDS011;70826;50.930;5.334;2023-11-21T10:43:59;14.02;;;12.70;;
10269;SDS011;70826;50.930;5.334;2023-11-21T10:46:29;15.00;;;13.18;;
10269;SDS011;70826;50.930;5.334;2023-11-21T10:48:55;14.20;;;12.48;;
10269;SDS011;70826;50.930;5.334;2023-11-21T10:51:23;14.10;;;12.68;;
10269;SDS011;70826;50.930;5.334;2023-11-21T10:53:50;15.45;;;13.63;;
10269;SDS011;70826;50.930;5.334;2023-11-21T10:56:16;14.63;;;12.63;;
10269;SDS011;70826;50.930;5.334;2023-11-21T10:58:46;13.90;;;12.40;;
10269;SDS011;70826;50.930;5.334;2023-11-21T11:01:19;13.98;;;12.57;;
10269;SDS011;70826;50.930;5.334;2023-11-21T11:03:49;14.43;;;12.18;;
10269;SDS011;70826;50.930;5.334;2023-11-21T11:06:19;14.63;;;12.63;;
10269;SDS011;70826;50.930;5.334;2023-11-21T11:08:46;13.85;;;12.43;;
10269;SDS011;70826;50.930;5.334;2023-11-21T11:11:15;14.30;;;12.80;;
10269;SDS011;70826;50.930;5.334;2023-11-21T11:13:43;14.13;;;12.68;;
10269;SDS011;70826;50.930;5.334;2023-11-21T11:16:11;15.18;;;13.57;;
10269;SDS011;70826;50.930;5.334;2023-11-21T11:18:44;15.93;;;13.68;;
10269;SDS011;70826;50.930;5.334;2023-11-21T11:21:19;13.80;;;12.50;;
10269;SDS011;70826;50.930;5.334;2023-11-21T11:27:05;14.48;;;13.05;;
10269;SDS011;70826;50.930;5.334;2023-11-21T11:29:39;15.07;;;13.57;;
10269;SDS011;70826;50.930;5.334;2023-11-21T11:32:50;15.43;;;13.95;;
10269;SDS011;70826;50.930;5.334;2023-11-21T11:38:01;15.48;;;14.07;;
10269;SDS011;70826;50.930;5.334;2023-11-21T11:40:38;15.68;;;14.18;;
10269;SDS011;70826;50.930;5.334;2023-11-21T11:43:13;15.02;;;13.48;;
10269;SDS011;70826;50.930;5.334;2023-11-21T11:45:58;15.02;;;13.55;;
10269;SDS011;70826;50.930;5.334;2023-11-21T11:48:27;15.82;;;14.23;;
10269;SDS011;70826;50.930;5.334;2023-11-21T11:51:01;14.77;;;13.38;;
10269;SDS011;70826;50.930;5.334;2023-11-21T11:53:39;15.13;;;13.60;;
10269;SDS011;70826;50.930;5.334;2023-11-21T11:56:19;15.13;;;13.63;;
10269;SDS011;70826;50.930;5.334;2023-11-21T11:59:02;15.32;;;13.85;;
10269;SDS011;70826;50.930;5.334;2023-11-21T12:01:34;15.70;;;14.15;;
10269;SDS011;70826;50.930;5.334;2023-11-21T12:06:45;15.73;;;14.15;;
10269;SDS011;70826;50.930;5.334;2023-11-21T12:09:26;14.60;;;13.10;;
10269;SDS011;70826;50.930;5.334;2023-11-21T12:11:55;13.90;;;12.60;;
10269;SDS011;70826;50.930;5.334;2023-11-21T12:14:23;15.32;;;13.52;;
10269;SDS011;70826;50.930;5.334;2023-11-21T12:16:49;15.25;;;13.65;;
10269;SDS011;70826;50.930;5.334;2023-11-21T12:19:16;14.85;;;13.23;;
10269;SDS011;70826;50.930;5.334;2023-11-21T12:21:43;15.38;;;13.77;;
10269;SDS011;70826;50.930;5.334;2023-11-21T12:24:13;14.48;;;12.98;;
10269;SDS011;70826;50.930;5.334;2023-11-21T12:26:41;14.65;;;13.20;;
10269;SDS011;70826;50.930;5.334;2023-11-21T12:29:12;15.75;;;14.27;;
10269;SDS011;70826;50.930;5.334;2023-11-21T12:31:44;14.95;;;13.40;;
10269;SDS011;70826;50.930;5.334;2023-11-21T12:34:12;16.30;;;14.70;;
10269;SDS011;70826;50.930;5.334;2023-11-21T12:36:38;16.70;;;15.05;;
10269;SDS011;70826;50.930;5.334;2023-11-21T12:39:07;16.48;;;14.98;;
10269;SDS011;70826;50.930;5.334;2023-11-21T12:41:35;16.65;;;15.05;;
10269;SDS011;70826;50.930;5.334;2023-11-21T12:44:01;17.98;;;16.33;;
10269;SDS011;70826;50.930;5.334;2023-11-21T12:46:29;18.65;;;16.92;;
10269;SDS011;70826;50.930;5.334;2023-11-21T12:48:55;18.73;;;16.88;;
10269;SDS011;70826;50.930;5.334;2023-11-21T12:51:24;18.48;;;16.85;;
10269;SDS011;70826;50.930;5.334;2023-11-21T12:53:56;18.02;;;16.45;;
10269;SDS011;70826;50.930;5.334;2023-11-21T12:56:24;18.40;;;16.75;;
10269;SDS011;70826;50.930;5.334;2023-11-21T12:58:53;18.77;;;17.08;;
10269;SDS011;70826;50.930;5.334;2023-11-21T13:01:25;17.73;;;16.17;;
10269;SDS011;70826;50.930;5.334;2023-11-21T13:03:53;18.13;;;16.50;;
10269;SDS011;70826;50.930;5.334;2023-11-21T13:06:21;17.15;;;15.43;;
10269;SDS011;70826;50.930;5.334;2023-11-21T13:08:52;17.23;;;15.55;;
10269;SDS011;70826;50.930;5.334;2023-11-21T13:11:22;16.90;;;15.10;;
10269;SDS011;70826;50.930;5.334;2023-11-21T13:13:53;15.55;;;14.05;;
10269;SDS011;70826;50.930;5.334;2023-11-21T13:16:24;16.92;;;15.38;;
10269;SDS011;70826;50.930;5.334;2023-11-21T13:18:52;16.40;;;14.88;;
10269;SDS011;70826;50.930;5.334;2023-11-21T13:21:17;16.80;;;15.07;;
10269;SDS011;70826;50.930;5.334;2023-11-21T13:23:43;16.10;;;14.48;;
10269;SDS011;70826;50.930;5.334;2023-11-21T13:26:13;15.60;;;14.10;;
10269;SDS011;70826;50.930;5.334;2023-11-21T13:28:41;15.88;;;14.40;;
10269;SDS011;70826;50.930;5.334;2023-11-21T13:31:11;15.50;;;13.90;;
10269;SDS011;70826;50.930;5.334;2023-11-21T13:33:56;15.45;;;14.00;;
10269;SDS011;70826;50.930;5.334;2023-11-21T13:36:24;16.58;;;14.88;;
10269;SDS011;70826;50.930;5.334;2023-11-21T13:38:50;16.10;;;14.48;;
10269;SDS011;70826;50.930;5.334;2023-11-21T13:41:19;16.33;;;14.60;;
10269;SDS011;70826;50.930;5.334;2023-11-21T13:43:45;16.75;;;14.60;;
10269;SDS011;70826;50.930;5.334;2023-11-21T13:46:23;15.73;;;14.13;;
10269;SDS011;70826;50.930;5.334;2023-11-21T13:48:52;16.80;;;15.05;;
10269;SDS011;70826;50.930;5.334;2023-11-21T13:51:21;16.95;;;15.25;;
10269;SDS011;70826;50.930;5.334;2023-11-21T13:53:58;16.25;;;14.60;;
10269;SDS011;70826;50.930;5.334;2023-11-21T13:56:25;16.15;;;14.60;;
10269;SDS011;70826;50.930;5.334;2023-11-21T13:58:54;15.85;;;14.25;;
10269;SDS011;70826;50.930;5.334;2023-11-21T14:01:21;16.95;;;15.13;;
10269;SDS011;70826;50.930;5.334;2023-11-21T14:03:56;16.75;;;15.05;;
10269;SDS011;70826;50.930;5.334;2023-11-21T14:06:51;16.35;;;14.65;;
10269;SDS011;70826;50.930;5.334;2023-11-21T14:09:22;17.10;;;15.30;;
10269;SDS011;70826;50.930;5.334;2023-11-21T14:11:57;16.80;;;15.23;;
10269;SDS011;70826;50.930;5.334;2023-11-21T14:14:31;16.35;;;14.77;;
10269;SDS011;70826;50.930;5.334;2023-11-21T14:16:59;17.13;;;15.52;;
10269;SDS011;70826;50.930;5.334;2023-11-21T14:19:27;17.75;;;16.10;;
10269;SDS011;70826;50.930;5.334;2023-11-21T14:21:57;16.52;;;15.02;;
10269;SDS011;70826;50.930;5.334;2023-11-21T14:24:23;16.05;;;14.55;;
10269;SDS011;70826;50.930;5.334;2023-11-21T14:26:53;16.13;;;14.55;;
10269;SDS011;70826;50.930;5.334;2023-11-21T14:29:19;16.13;;;14.63;;
10269;SDS011;70826;50.930;5.334;2023-11-21T14:31:51;16.33;;;14.77;;
10269;SDS011;70826;50.930;5.334;2023-11-21T14:34:21;15.80;;;14.40;;
10269;SDS011;70826;50.930;5.334;2023-11-21T14:36:47;16.85;;;15.35;;
10269;SDS011;70826;50.930;5.334;2023-11-21T14:39:16;15.93;;;14.45;;